createdAt,value
2022-12-18T00:04:21.784Z,85.57
2022-12-18T00:09:24.929Z,85.43
2022-12-18T00:14:33.115Z,86.08
2022-12-18T00:19:35.236Z,86.54
2022-12-18T00:24:37.486Z,87.51
2022-12-18T00:29:39.600Z,87.55
2022-12-18T00:34:41.760Z,86.59
2022-12-18T00:39:43.893Z,86.06
2022-12-18T00:44:46.040Z,85.92
2022-12-18T00:49:48.208Z,86.32
2022-12-18T00:54:50.310Z,86.47
2022-12-18T00:59:52.449Z,86.35
2022-12-18T01:04:54.543Z,86.67
2022-12-18T01:09:56.934Z,86.71
2022-12-18T01:14:59.359Z,86.59
2022-12-18T01:20:01.711Z,86.39
2022-12-18T01:25:05.332Z,86.94
2022-12-18T01:30:08.403Z,86.84
2022-12-18T01:35:10.564Z,86.01
2022-12-18T01:40:12.964Z,85.61
2022-12-18T01:45:14.985Z,86.07
2022-12-18T01:50:40.513Z,86.55
2022-12-18T01:55:47.719Z,86.36
2022-12-18T02:00:49.916Z,86.19
2022-12-18T02:06:16.029Z,86.58
2022-12-18T02:11:30.345Z,85.54
2022-12-18T02:17:02.138Z,85.75
2022-12-18T02:22:13.493Z,86.45
2022-12-18T02:27:16.368Z,87.00
2022-12-18T02:32:27.996Z,86.11
2022-12-18T02:37:31.863Z,87.69
2022-12-18T02:42:34.038Z,87.56
2022-12-18T02:47:40.234Z,87.90
2022-12-18T02:53:10.307Z,88.28
2022-12-18T02:58:17.965Z,87.88
2022-12-18T03:03:30.300Z,88.85
2022-12-18T03:08:42.856Z,89.39
2022-12-18T03:13:57.165Z,89.48
2022-12-18T03:19:04.048Z,89.02
2022-12-18T03:24:10.598Z,88.63
2022-12-18T03:29:42.183Z,88.76
2022-12-18T03:34:47.502Z,88.78
2022-12-18T03:39:49.804Z,88.93
2022-12-18T03:45:06.238Z,89.40
2022-12-18T03:50:19.079Z,89.65
2022-12-18T03:55:23.690Z,88.47
2022-12-18T04:00:25.916Z,88.59
2022-12-18T04:05:29.653Z,88.87
2022-12-18T04:10:31.839Z,89.20
2022-12-18T04:15:37.944Z,89.38
2022-12-18T04:20:40.143Z,89.37
2022-12-18T04:25:42.210Z,89.42
2022-12-18T04:30:44.355Z,89.36
2022-12-18T04:35:47.630Z,88.83
2022-12-18T04:40:49.809Z,88.93
2022-12-18T04:45:51.944Z,88.80
2022-12-18T04:50:54.096Z,88.72
2022-12-18T04:56:05.494Z,88.50
2022-12-18T05:01:08.594Z,89.07
2022-12-18T05:06:11.019Z,89.46
2022-12-18T05:11:16.777Z,89.35
2022-12-18T05:16:18.856Z,89.74
2022-12-18T05:21:20.984Z,89.64
2022-12-18T05:26:23.234Z,90.18
2022-12-18T05:31:25.434Z,90.11
2022-12-18T05:36:27.535Z,90.60
2022-12-18T05:41:29.842Z,90.58
2022-12-18T05:46:31.981Z,90.67
2022-12-18T05:51:34.050Z,90.63
2022-12-18T05:56:36.140Z,89.90
2022-12-18T06:01:38.358Z,89.93
2022-12-18T06:06:40.481Z,90.17
2022-12-18T06:11:42.716Z,89.26
2022-12-18T06:16:45.233Z,88.96
2022-12-18T06:21:48.085Z,88.92
2022-12-18T06:26:50.149Z,89.68
2022-12-18T06:31:52.269Z,90.45
2022-12-18T06:36:54.389Z,91.22
2022-12-18T06:41:56.765Z,91.59
2022-12-18T06:46:58.885Z,91.90
2022-12-18T06:52:00.929Z,92.14
2022-12-18T06:57:03.073Z,91.97
2022-12-18T07:02:05.751Z,91.72
2022-12-18T07:07:07.927Z,91.48
2022-12-18T07:12:10.529Z,91.32
2022-12-18T07:17:13.014Z,91.20
2022-12-18T07:22:15.140Z,91.07
2022-12-18T07:27:17.497Z,90.65
2022-12-18T07:32:20.237Z,90.64
2022-12-18T07:37:22.329Z,90.37
2022-12-18T07:42:33.287Z,89.75
2022-12-18T07:47:37.130Z,89.18
2022-12-18T07:52:39.200Z,88.60
2022-12-18T07:57:50.360Z,88.06
2022-12-18T08:02:53.575Z,87.79
2022-12-18T08:07:56.002Z,87.33
2022-12-18T08:13:03.110Z,86.93
2022-12-18T08:18:12.711Z,86.97
2022-12-18T08:23:16.290Z,85.93
2022-12-18T08:28:18.479Z,84.10
2022-12-18T08:33:20.548Z,82.92
2022-12-18T08:38:23.872Z,81.73
2022-12-18T08:43:44.631Z,81.20
2022-12-18T08:48:46.856Z,80.07
2022-12-18T08:53:49.004Z,79.43
2022-12-18T08:58:55.376Z,78.49
2022-12-18T09:03:57.584Z,77.18
2022-12-18T09:08:59.794Z,76.64
2022-12-18T09:14:02.712Z,76.32
2022-12-18T09:19:06.774Z,76.29
2022-12-18T09:24:13.518Z,76.38
2022-12-18T09:29:18.958Z,76.06
2022-12-18T09:34:22.877Z,74.21
2022-12-18T09:39:24.985Z,74.29
2022-12-18T09:44:31.943Z,73.67
2022-12-18T09:49:40.401Z,73.03
2022-12-18T09:54:47.757Z,71.63
2022-12-18T10:00:19.584Z,70.22
2022-12-18T10:05:40.196Z,63.47
2022-12-18T10:10:53.494Z,36.00
2022-12-18T10:16:01.589Z,30.89
2022-12-18T10:21:22.684Z,25.70
2022-12-18T10:26:26.064Z,23.61
2022-12-18T10:31:28.577Z,21.64
2022-12-18T10:36:31.018Z,22.05
2022-12-18T10:41:33.389Z,22.20
2022-12-18T10:46:35.882Z,22.01
2022-12-18T10:51:39.088Z,21.23
2022-12-18T10:56:43.115Z,21.82
2022-12-18T11:01:48.090Z,19.57
2022-12-18T11:06:56.692Z,19.32
2022-12-18T11:12:07.108Z,20.01
2022-12-18T11:17:26.455Z,18.59
2022-12-18T11:22:48.823Z,18.22
2022-12-18T11:28:03.542Z,19.61
2022-12-18T11:33:11.769Z,18.46
2022-12-18T11:38:24.365Z,20.97
2022-12-18T11:43:32.990Z,18.07
2022-12-18T11:48:46.374Z,18.43
2022-12-18T11:53:48.477Z,20.94
2022-12-18T11:59:32.050Z,21.07
2022-12-18T12:04:42.692Z,20.31
2022-12-18T12:09:50.756Z,22.93
2022-12-18T12:15:14.252Z,27.83
2022-12-18T12:20:53.486Z,24.25
2022-12-18T12:26:07.710Z,24.55
2022-12-18T12:31:46.657Z,23.75
2022-12-18T12:37:08.894Z,24.37
2022-12-18T12:42:46.508Z,24.55
2022-12-18T12:47:52.062Z,25.62
2022-12-18T12:52:56.861Z,23.89
2022-12-18T12:58:15.600Z,24.08
2022-12-18T13:03:45.129Z,26.18
2022-12-18T13:09:01.675Z,29.37
2022-12-18T13:14:03.919Z,31.45
2022-12-18T13:19:27.564Z,30.84
2022-12-18T13:24:32.405Z,35.94
2022-12-18T13:29:46.593Z,37.54
2022-12-18T13:34:50.187Z,37.99
2022-12-18T13:39:52.286Z,39.56
2022-12-18T13:44:54.472Z,43.22
2022-12-18T13:49:58.137Z,41.40
2022-12-18T13:55:03.419Z,41.92
2022-12-18T14:00:26.814Z,38.59
2022-12-18T14:05:33.330Z,41.14
2022-12-18T14:10:47.974Z,43.55
2022-12-18T14:15:52.279Z,42.88
2022-12-18T14:20:58.541Z,46.01
2022-12-18T14:26:25.626Z,48.78
2022-12-18T14:31:31.038Z,49.07
2022-12-18T14:36:33.138Z,52.71
2022-12-18T14:41:35.473Z,55.50
2022-12-18T14:46:39.371Z,58.60
2022-12-18T14:51:49.679Z,60.41
2022-12-18T14:57:16.642Z,62.71
2022-12-18T15:02:29.770Z,64.71
2022-12-18T15:07:48.667Z,65.10
2022-12-18T15:12:56.978Z,68.64
2022-12-18T15:18:01.003Z,67.75
2022-12-18T15:23:03.186Z,67.73
2022-12-18T15:28:17.047Z,69.73
2022-12-18T15:33:27.746Z,70.75
2022-12-18T15:38:30.123Z,71.59
2022-12-18T15:43:35.314Z,71.50
2022-12-18T15:48:46.662Z,72.05
2022-12-18T15:53:51.203Z,73.50
2022-12-18T15:58:53.279Z,73.88
2022-12-18T16:03:56.092Z,74.53
2022-12-18T16:08:58.313Z,75.03
2022-12-18T16:14:00.794Z,75.76
2022-12-18T16:19:03.154Z,76.24
2022-12-18T16:24:05.821Z,76.76
2022-12-18T16:29:07.928Z,77.54
2022-12-18T16:34:28.802Z,78.14
2022-12-18T16:39:32.036Z,78.83
2022-12-18T16:44:35.309Z,80.10
2022-12-18T16:49:38.607Z,79.85
2022-12-18T16:54:43.955Z,80.63
2022-12-18T16:59:47.134Z,81.51
2022-12-18T17:04:49.284Z,81.97
2022-12-18T17:09:51.634Z,82.85
2022-12-18T17:14:53.735Z,83.57
2022-12-18T17:19:55.922Z,83.72
2022-12-18T17:24:58.077Z,84.04
2022-12-18T17:30:00.161Z,84.33
2022-12-18T17:35:06.970Z,84.35
2022-12-18T17:40:10.196Z,84.45
2022-12-18T17:45:12.353Z,84.68
2022-12-18T17:50:14.636Z,85.52
2022-12-18T17:55:16.900Z,86.11
2022-12-18T18:00:21.151Z,86.26
2022-12-18T18:05:23.264Z,85.97
2022-12-18T18:10:25.459Z,86.02
2022-12-18T18:15:27.573Z,85.94
2022-12-18T18:20:30.553Z,86.17
2022-12-18T18:25:37.440Z,86.56
2022-12-18T18:30:39.896Z,86.67
2022-12-18T18:35:53.732Z,86.74
2022-12-18T18:41:05.660Z,86.53
2022-12-18T18:46:07.875Z,86.71
2022-12-18T18:51:14.678Z,87.57
2022-12-18T19:01:50.612Z,88.66
2022-12-18T19:06:52.946Z,88.51
2022-12-18T19:12:15.425Z,88.97
2022-12-18T19:17:17.580Z,89.32
2022-12-18T19:22:19.942Z,89.49
2022-12-18T19:27:22.113Z,89.98
2022-12-18T19:32:24.354Z,90.16
2022-12-18T19:37:26.882Z,90.60
2022-12-18T19:42:35.017Z,90.83
2022-12-18T19:47:37.721Z,91.00
2022-12-18T19:52:39.850Z,91.33
2022-12-18T19:57:42.063Z,91.70
2022-12-18T20:02:44.351Z,91.82
2022-12-18T20:07:46.527Z,91.97
2022-12-18T20:12:48.618Z,91.50
2022-12-18T20:17:50.719Z,91.64
2022-12-18T20:22:53.030Z,91.56
2022-12-18T20:27:55.265Z,91.33
2022-12-18T20:32:57.407Z,91.53
2022-12-18T20:37:59.524Z,91.64
2022-12-18T20:43:03.139Z,91.74
2022-12-18T20:48:05.400Z,92.03
2022-12-18T20:53:07.507Z,92.08
2022-12-18T20:58:09.733Z,92.03
2022-12-18T21:03:12.947Z,91.88
2022-12-18T21:08:15.263Z,91.83
2022-12-18T21:13:17.492Z,91.70
2022-12-18T21:18:20.746Z,91.97
2022-12-18T21:23:23.060Z,91.53
2022-12-18T21:28:25.240Z,91.31
2022-12-18T21:33:27.349Z,91.50
2022-12-18T21:38:29.496Z,91.57
2022-12-18T21:43:50.412Z,91.59
2022-12-18T21:48:52.498Z,91.31
2022-12-18T21:53:54.644Z,91.01
2022-12-18T21:58:57.466Z,90.80
2022-12-18T22:03:59.765Z,90.60
2022-12-18T22:09:02.077Z,90.41
2022-12-18T22:14:04.227Z,90.24
2022-12-18T22:19:06.678Z,89.45
2022-12-18T22:24:13.795Z,88.90
2022-12-18T22:29:37.468Z,89.58
2022-12-18T22:34:39.664Z,90.11
2022-12-18T22:39:42.290Z,90.39
2022-12-18T22:44:44.778Z,91.03
2022-12-18T22:49:46.925Z,91.33
2022-12-18T22:54:48.988Z,91.74
2022-12-18T22:59:51.785Z,91.91
2022-12-18T23:04:53.879Z,92.01
2022-12-18T23:09:59.581Z,92.12
2022-12-18T23:15:04.887Z,92.25
2022-12-18T23:20:07.421Z,92.36
2022-12-18T23:25:09.839Z,92.05
2022-12-18T23:30:12.519Z,91.16
2022-12-18T23:35:15.772Z,89.63
2022-12-18T23:40:18.717Z,87.74
2022-12-18T23:45:20.813Z,86.57
2022-12-18T23:50:28.941Z,86.04
2022-12-18T23:55:32.115Z,85.96
